Time,TemperatureF,DewpointF,PressureIn,WindDirection,WindDirectionDegrees,WindSpeedMPH,WindSpeedGustMPH,Humidity,HourlyPrecipIn,Conditions,Clouds,dailyrainin,SoftwareType,DateUTC
2013-03-15 00:05:00,38.7,28.7,30.43,NW,315,0.0,0.0,67,0.00,,,0.00,pywws,2013-03-15 04:05:00,
2013-03-15 00:10:00,38.8,28.8,30.44,NW,315,0.0,0.0,67,0.00,,,0.00,pywws,2013-03-15 04:10:00,
2013-03-15 00:15:00,38.8,27.7,30.44,NW,315,0.7,2.2,64,0.00,,,0.00,pywws,2013-03-15 04:15:00,
2013-03-15 00:20:00,38.8,27.7,30.44,NW,315,0.7,2.2,64,0.00,,,0.00,pywws,2013-03-15 04:20:00,
2013-03-15 00:25:00,41.5,26.6,30.44,NNW,338,0.7,1.6,55,0.00,,,0.00,pywws,2013-03-15 04:25:00,
2013-03-15 00:35:00,42.1,26.2,30.45,NW,315,0.0,1.6,53,0.00,,,0.00,pywws,2013-03-15 04:35:00,
2013-03-15 00:40:00,42.8,25.9,30.45,West,270,0.7,1.6,51,0.00,,,0.00,pywws,2013-03-15 04:40:00,
2013-03-15 00:45:00,43.0,26.1,30.45,West,270,0.0,0.0,51,0.00,,,0.00,pywws,2013-03-15 04:45:00,
2013-03-15 00:50:00,43.2,26.3,30.45,NW,315,0.0,0.0,51,0.00,,,0.00,pywws,2013-03-15 04:50:00,
2013-03-15 00:55:00,43.0,25.6,30.46,NW,315,0.0,0.0,50,0.00,,,0.00,pywws,2013-03-15 04:55:00,
2013-03-15 01:05:00,43.0,25.6,30.46,NW,315,0.0,0.0,50,0.00,,,0.00,pywws,2013-03-15 05:05:00,
2013-03-15 01:10:00,43.2,26.7,30.46,East,90,0.0,0.7,52,0.00,,,0.00,pywws,2013-03-15 05:10:00,
2013-03-15 01:15:00,43.2,25.8,30.47,SW,225,0.0,0.0,50,0.00,,,0.00,pywws,2013-03-15 05:15:00,
2013-03-15 01:20:00,43.3,25.5,30.47,NE,45,0.0,0.0,49,0.00,,,0.00,pywws,2013-03-15 05:20:00,
2013-03-15 01:25:00,43.3,26.0,30.47,NE,45,0.0,0.0,50,0.00,,,0.00,pywws,2013-03-15 05:25:00,
2013-03-15 01:35:00,43.3,26.9,30.47,South,180,0.0,0.7,52,0.00,,,0.00,pywws,2013-03-15 05:35:00,
2013-03-15 01:40:00,43.2,25.3,30.47,NW,315,0.0,0.0,49,0.00,,,0.00,pywws,2013-03-15 05:40:00,
2013-03-15 01:45:00,43.7,25.8,30.47,NW,315,0.0,0.7,49,0.00,,,0.00,pywws,2013-03-15 05:45:00,
2013-03-15 01:50:00,43.7,28.2,30.48,SW,225,0.0,0.0,54,0.00,,,0.00,pywws,2013-03-15 05:50:00,
2013-03-15 01:55:00,43.5,28.0,30.48,North,0,0.0,0.0,54,0.00,,,0.00,pywws,2013-03-15 05:55:00,
2013-03-15 02:05:00,43.3,26.9,30.48,NE,45,0.0,0.0,52,0.00,,,0.00,pywws,2013-03-15 06:05:00,
2013-03-15 02:10:00,43.7,25.3,30.49,West,270,0.0,1.6,48,0.00,,,0.00,pywws,2013-03-15 06:10:00,
2013-03-15 02:15:00,43.5,25.1,30.49,NW,315,0.7,1.6,48,0.00,,,0.00,pywws,2013-03-15 06:15:00,
2013-03-15 02:20:00,43.3,25.5,30.49,NW,315,0.0,0.7,49,0.00,,,0.00,pywws,2013-03-15 06:20:00,
2013-03-15 02:25:00,43.2,25.3,30.49,NW,315,0.0,0.7,49,0.00,,,0.00,pywws,2013-03-15 06:25:00,
2013-03-15 02:35:00,42.8,25.5,30.49,NW,315,0.0,0.7,50,0.00,,,0.00,pywws,2013-03-15 06:35:00,
2013-03-15 02:40:00,42.3,25.0,30.50,East,90,0.0,0.0,50,0.00,,,0.00,pywws,2013-03-15 06:40:00,
2013-03-15 02:45:00,42.1,24.8,30.50,NE,45,0.0,1.6,50,0.00,,,0.00,pywws,2013-03-15 06:45:00,
2013-03-15 02:50:00,41.7,25.4,30.50,West,270,0.0,0.0,52,0.00,,,0.00,pywws,2013-03-15 06:50:00,
2013-03-15 02:55:00,41.2,25.4,30.50,SE,135,0.0,0.0,53,0.00,,,0.00,pywws,2013-03-15 06:55:00,
2013-03-15 03:05:00,40.8,25.5,30.50,SE,135,0.0,0.0,54,0.00,,,0.00,pywws,2013-03-15 07:05:00,
2013-03-15 03:10:00,39.9,25.9,30.51,SW,225,0.0,0.0,57,0.00,,,0.00,pywws,2013-03-15 07:10:00,
2013-03-15 03:15:00,39.0,25.5,30.51,SW,225,0.0,0.0,58,0.00,,,0.00,pywws,2013-03-15 07:15:00,
2013-03-15 03:20:00,39.0,25.5,30.51,SW,225,0.0,0.0,58,0.00,,,0.00,pywws,2013-03-15 07:20:00,
2013-03-15 03:25:00,38.7,25.6,30.51,SW,225,0.0,0.0,59,0.00,,,0.00,pywws,2013-03-15 07:25:00,
2013-03-15 03:35:00,38.3,25.6,30.51,SW,225,0.0,0.0,60,0.00,,,0.00,pywws,2013-03-15 07:35:00,
2013-03-15 03:39:00,37.9,26.1,30.52,SW,225,0.0,0.0,62,0.00,,,0.00,pywws,2013-03-15 07:39:00,
2013-03-15 03:44:00,37.8,26.3,30.52,SW,225,0.0,0.0,63,0.00,,,0.00,pywws,2013-03-15 07:44:00,
2013-03-15 03:49:00,37.8,26.3,30.52,SW,225,0.0,0.7,63,0.00,,,0.00,pywws,2013-03-15 07:49:00,
2013-03-15 03:54:00,37.6,26.5,30.53,West,270,0.0,1.6,64,0.00,,,0.00,pywws,2013-03-15 07:54:00,
2013-03-15 04:05:00,37.4,27.1,30.53,West,270,0.0,0.0,66,0.00,,,0.00,pywws,2013-03-15 08:05:00,
2013-03-15 04:10:00,36.5,26.2,30.52,West,270,0.0,1.6,66,0.00,,,0.00,pywws,2013-03-15 08:10:00,
2013-03-15 04:15:00,36.1,26.6,30.52,West,270,0.7,2.2,68,0.00,,,0.00,pywws,2013-03-15 08:15:00,
2013-03-15 04:20:00,36.1,26.3,30.51,NW,315,1.6,3.8,67,0.00,,,0.00,pywws,2013-03-15 08:20:00,
2013-03-15 04:25:00,37.0,26.0,30.49,West,270,2.2,4.5,64,0.00,,,0.00,pywws,2013-03-15 08:25:00,
2013-03-15 04:35:00,37.9,26.5,30.48,NW,315,1.6,3.8,63,0.00,,,0.00,pywws,2013-03-15 08:35:00,
2013-03-15 04:39:00,38.1,26.3,30.47,NW,315,0.7,2.2,62,0.00,,,0.00,pywws,2013-03-15 08:39:00,
2013-03-15 04:44:00,37.9,25.7,30.46,NNE,22,0.7,1.6,61,0.00,,,0.00,pywws,2013-03-15 08:44:00,
2013-03-15 04:49:00,38.1,25.9,30.45,West,270,0.7,1.6,61,0.00,,,0.00,pywws,2013-03-15 08:49:00,
2013-03-15 04:54:00,37.8,25.1,30.45,North,0,0.7,1.6,60,0.00,,,0.00,pywws,2013-03-15 08:54:00,
2013-03-15 05:05:00,37.9,25.7,30.44,West,270,0.0,1.6,61,0.00,,,0.00,pywws,2013-03-15 09:05:00,
2013-03-15 05:10:00,37.2,26.6,30.43,West,270,0.7,1.6,65,0.00,,,0.00,pywws,2013-03-15 09:10:00,
2013-03-15 05:15:00,36.3,26.1,30.43,West,270,0.7,2.2,66,0.00,,,0.00,pywws,2013-03-15 09:15:00,
2013-03-15 05:20:00,35.6,25.7,30.42,West,270,0.7,1.6,67,0.00,,,0.00,pywws,2013-03-15 09:20:00,
2013-03-15 05:25:00,35.6,25.4,30.42,West,270,0.7,1.6,66,0.00,,,0.00,pywws,2013-03-15 09:25:00,
2013-03-15 05:35:00,35.6,25.4,30.42,West,270,0.0,1.6,66,0.00,,,0.00,pywws,2013-03-15 09:35:00,
2013-03-15 05:39:00,35.4,25.6,30.41,North,0,0.0,0.0,67,0.00,,,0.00,pywws,2013-03-15 09:39:00,
2013-03-15 05:44:00,35.2,26.1,30.42,South,180,0.0,0.7,69,0.00,,,0.00,pywws,2013-03-15 09:44:00,
2013-03-15 05:49:00,34.9,26.1,30.42,West,270,0.0,0.0,70,0.00,,,0.00,pywws,2013-03-15 09:49:00,
2013-03-15 05:54:00,34.5,25.8,30.42,West,270,0.0,0.7,70,0.00,,,0.00,pywws,2013-03-15 09:54:00,
2013-03-15 06:05:00,34.5,26.1,30.43,West,270,0.0,0.7,71,0.00,,,0.00,pywws,2013-03-15 10:05:00,
2013-03-15 06:10:00,34.3,26.3,30.43,SE,135,0.0,0.0,72,0.00,,,0.00,pywws,2013-03-15 10:10:00,
2013-03-15 06:15:00,34.2,26.1,30.44,SE,135,0.0,0.0,72,0.00,,,0.00,pywws,2013-03-15 10:15:00,
2013-03-15 06:20:00,33.8,25.4,30.44,South,180,0.0,0.0,71,0.00,,,0.00,pywws,2013-03-15 10:20:00,
2013-03-15 06:25:00,33.8,25.4,30.44,South,180,0.0,0.0,71,0.00,,,0.00,pywws,2013-03-15 10:25:00,
2013-03-15 06:35:00,33.6,25.2,30.43,South,180,0.0,0.7,71,0.00,,,0.00,pywws,2013-03-15 10:35:00,
2013-03-15 06:40:00,33.6,25.2,30.42,West,270,0.7,1.6,71,0.00,,,0.00,pywws,2013-03-15 10:40:00,
2013-03-15 06:45:00,33.4,25.4,30.42,West,270,0.0,0.7,72,0.00,,,0.00,pywws,2013-03-15 10:45:00,
2013-03-15 06:50:00,33.3,25.2,30.41,West,270,0.0,0.7,72,0.00,,,0.00,pywws,2013-03-15 10:50:00,
2013-03-15 06:55:00,32.9,25.2,30.40,West,270,0.0,0.7,73,0.00,,,0.00,pywws,2013-03-15 10:55:00,
2013-03-15 07:05:00,32.7,25.0,30.40,South,180,0.0,0.0,73,0.00,,,0.00,pywws,2013-03-15 11:05:00,
2013-03-15 07:10:00,32.5,25.5,30.39,SE,135,0.0,0.0,75,0.00,,,0.00,pywws,2013-03-15 11:10:00,
2013-03-15 07:15:00,32.4,25.0,30.38,SE,135,0.0,0.0,74,0.00,,,0.00,pywws,2013-03-15 11:15:00,
2013-03-15 07:20:00,32.4,25.0,30.38,SE,135,0.0,0.0,74,0.00,,,0.00,pywws,2013-03-15 11:20:00,
2013-03-15 07:25:00,32.5,25.5,30.37,SE,135,0.0,0.7,75,0.00,,,0.00,pywws,2013-03-15 11:25:00,
2013-03-15 07:35:00,32.7,25.7,30.37,SE,135,0.0,0.7,75,0.00,,,0.00,pywws,2013-03-15 11:35:00,
2013-03-15 07:39:00,33.1,26.0,30.37,West,270,0.7,1.6,75,0.00,,,0.00,pywws,2013-03-15 11:39:00,
2013-03-15 07:44:00,32.9,25.9,30.37,West,270,0.0,0.0,75,0.00,,,0.00,pywws,2013-03-15 11:44:00,
2013-03-15 07:49:00,32.7,25.4,30.38,South,180,0.0,0.0,74,0.00,,,0.00,pywws,2013-03-15 11:49:00,
2013-03-15 07:54:00,32.7,25.7,30.38,West,270,0.7,1.6,75,0.00,,,0.00,pywws,2013-03-15 11:54:00,
2013-03-15 08:05:00,32.5,25.5,30.37,West,270,0.0,0.7,75,0.00,,,0.00,pywws,2013-03-15 12:05:00,
2013-03-15 08:09:00,32.5,25.5,30.36,SE,135,0.0,0.0,75,0.00,,,0.00,pywws,2013-03-15 12:09:00,
2013-03-15 08:14:00,32.7,25.7,30.34,SE,135,0.0,0.0,75,0.00,,,0.00,pywws,2013-03-15 12:14:00,
2013-03-15 08:19:00,32.9,25.9,30.33,SE,135,0.0,0.0,75,0.00,,,0.00,pywws,2013-03-15 12:19:00,
2013-03-15 08:24:00,32.9,26.2,30.32,SE,135,0.0,0.0,76,0.00,,,0.00,pywws,2013-03-15 12:24:00,
2013-03-15 08:35:00,33.1,26.4,30.32,SE,135,0.0,0.0,76,0.00,,,0.00,pywws,2013-03-15 12:35:00,
2013-03-15 08:39:00,34.2,26.8,30.31,SE,135,0.0,0.0,74,0.00,,,0.00,pywws,2013-03-15 12:39:00,
2013-03-15 08:44:00,35.4,27.6,30.30,West,270,0.0,0.7,73,0.00,,,0.00,pywws,2013-03-15 12:44:00,
2013-03-15 08:49:00,36.0,27.8,30.30,West,270,0.0,0.0,72,0.00,,,0.00,pywws,2013-03-15 12:49:00,
2013-03-15 08:54:00,36.5,27.7,30.29,West,270,0.0,0.0,70,0.00,,,0.00,pywws,2013-03-15 12:54:00,
2013-03-15 09:05:00,37.2,28.0,30.29,West,270,0.0,0.0,69,0.00,,,0.00,pywws,2013-03-15 13:05:00,
2013-03-15 09:10:00,39.0,29.0,30.28,SE,135,0.0,0.0,67,0.00,,,0.00,pywws,2013-03-15 13:10:00,
2013-03-15 09:15:00,40.5,28.9,30.27,SE,135,0.0,0.0,63,0.00,,,0.00,pywws,2013-03-15 13:15:00,
2013-03-15 09:20:00,41.5,28.7,30.27,SE,135,0.0,0.0,60,0.00,,,0.00,pywws,2013-03-15 13:20:00,
2013-03-15 09:25:00,43.7,30.3,30.27,SE,135,0.0,0.7,59,0.00,,,0.00,pywws,2013-03-15 13:25:00,
2013-03-15 09:35:00,46.2,31.0,30.28,SE,135,0.0,0.0,55,0.00,,,0.00,pywws,2013-03-15 13:35:00,
2013-03-15 09:39:00,47.3,25.9,30.29,SE,135,0.7,1.6,43,0.00,,,0.00,pywws,2013-03-15 13:39:00,
2013-03-15 09:44:00,47.8,23.5,30.30,SSE,158,0.7,2.2,38,0.00,,,0.00,pywws,2013-03-15 13:44:00,
2013-03-15 09:54:00,49.8,21.9,30.31,SE,135,0.7,2.2,33,0.00,,,0.00,pywws,2013-03-15 13:54:00,
2013-03-15 10:05:00,50.2,22.2,30.31,South,180,0.0,2.2,33,0.00,,,0.00,pywws,2013-03-15 14:05:00,
2013-03-15 10:09:00,52.2,17.4,30.32,South,180,0.7,3.1,25,0.00,,,0.00,pywws,2013-03-15 14:09:00,
2013-03-15 10:14:00,53.1,20.0,30.32,East,90,0.0,1.6,27,0.00,,,0.00,pywws,2013-03-15 14:14:00,
2013-03-15 10:19:00,53.8,18.8,30.33,SE,135,0.7,3.8,25,0.00,,,0.00,pywws,2013-03-15 14:19:00,
2013-03-15 10:24:00,53.2,17.4,30.33,NW,315,1.6,3.8,24,0.00,,,0.00,pywws,2013-03-15 14:24:00,
2013-03-15 10:35:00,53.2,16.4,30.33,South,180,1.6,3.1,23,0.00,,,0.00,pywws,2013-03-15 14:35:00,
2013-03-15 10:39:00,52.7,16.0,30.31,South,180,2.2,3.8,23,0.00,,,0.00,pywws,2013-03-15 14:39:00,
2013-03-15 10:44:00,53.6,16.7,30.30,SSW,202,2.2,3.8,23,0.00,,,0.00,pywws,2013-03-15 14:44:00,
2013-03-15 10:49:00,54.3,18.3,30.29,South,180,2.2,4.5,24,0.00,,,0.00,pywws,2013-03-15 14:49:00,
2013-03-15 10:54:00,54.3,19.3,30.27,South,180,1.6,3.8,25,0.00,,,0.00,pywws,2013-03-15 14:54:00,
2013-03-15 11:05:00,54.9,18.8,30.27,West,270,1.6,3.1,24,0.00,,,0.00,pywws,2013-03-15 15:05:00,
2013-03-15 11:10:00,54.7,19.6,30.27,East,90,0.7,3.1,25,0.00,,,0.00,pywws,2013-03-15 15:10:00,
2013-03-15 11:15:00,55.4,21.1,30.27,West,270,2.2,6.9,26,0.00,,,0.00,pywws,2013-03-15 15:15:00,
2013-03-15 11:20:00,55.6,19.4,30.28,West,270,2.2,4.5,24,0.00,,,0.00,pywws,2013-03-15 15:20:00,
2013-03-15 11:25:00,56.7,19.3,30.28,SW,225,3.1,4.5,23,0.00,,,0.00,pywws,2013-03-15 15:25:00,
2013-03-15 11:35:00,58.3,19.6,30.28,South,180,2.2,3.8,22,0.00,,,0.00,pywws,2013-03-15 15:35:00,
2013-03-15 11:39:00,59.9,22.0,30.29,South,180,1.6,3.8,23,0.00,,,0.00,pywws,2013-03-15 15:39:00,
2013-03-15 11:44:00,61.2,23.1,30.29,SE,135,0.0,1.6,23,0.00,,,0.00,pywws,2013-03-15 15:44:00,
2013-03-15 11:49:00,60.8,21.7,30.29,SSE,158,2.2,3.8,22,0.00,,,0.00,pywws,2013-03-15 15:49:00,
2013-03-15 11:54:00,60.8,22.8,30.30,East,90,0.7,2.2,23,0.00,,,0.00,pywws,2013-03-15 15:54:00,
2013-03-15 12:05:00,61.0,20.8,30.30,South,180,1.6,3.8,21,0.00,,,0.00,pywws,2013-03-15 16:05:00,
2013-03-15 12:10:00,61.3,23.2,30.30,West,270,3.1,6.0,23,0.00,,,0.00,pywws,2013-03-15 16:10:00,
2013-03-15 12:15:00,61.5,24.4,30.30,West,270,2.2,6.0,24,0.00,,,0.00,pywws,2013-03-15 16:15:00,
2013-03-15 12:20:00,61.7,24.5,30.31,West,270,2.2,5.4,24,0.00,,,0.00,pywws,2013-03-15 16:20:00,
2013-03-15 12:25:00,61.9,25.7,30.31,West,270,1.6,5.4,25,0.00,,,0.00,pywws,2013-03-15 16:25:00,
2013-03-15 12:35:00,62.1,25.8,30.31,SE,135,2.2,4.5,25,0.00,,,0.00,pywws,2013-03-15 16:35:00,
2013-03-15 12:39:00,62.2,26.9,30.31,West,270,5.4,9.2,26,0.00,,,0.00,pywws,2013-03-15 16:39:00,
2013-03-15 12:44:00,63.0,28.5,30.31,NW,315,1.6,3.8,27,0.00,,,0.00,pywws,2013-03-15 16:44:00,
2013-03-15 12:49:00,63.0,28.5,30.31,West,270,3.8,7.6,27,0.00,,,0.00,pywws,2013-03-15 16:49:00,
2013-03-15 12:54:00,63.0,28.5,30.31,NW,315,3.8,8.3,27,0.00,,,0.00,pywws,2013-03-15 16:54:00,
2013-03-15 13:05:00,63.1,29.5,30.31,West,270,2.2,4.5,28,0.00,,,0.00,pywws,2013-03-15 17:05:00,
2013-03-15 13:10:00,63.1,29.5,30.31,West,270,3.1,7.6,28,0.00,,,0.00,pywws,2013-03-15 17:10:00,
2013-03-15 13:15:00,63.7,30.8,30.31,South,180,3.8,6.0,29,0.00,,,0.00,pywws,2013-03-15 17:15:00,
2013-03-15 13:20:00,64.4,31.5,30.31,West,270,3.8,6.0,29,0.00,,,0.00,pywws,2013-03-15 17:20:00,
2013-03-15 13:25:00,64.0,31.1,30.31,West,270,3.1,6.0,29,0.00,,,0.00,pywws,2013-03-15 17:25:00,
2013-03-15 13:35:00,63.7,31.7,30.31,West,270,2.2,5.4,30,0.00,,,0.00,pywws,2013-03-15 17:35:00,
2013-03-15 13:39:00,64.0,32.0,30.31,SW,225,2.2,5.4,30,0.00,,,0.00,pywws,2013-03-15 17:39:00,
2013-03-15 13:44:00,64.4,32.3,30.31,NW,315,3.1,5.4,30,0.00,,,0.00,pywws,2013-03-15 17:44:00,
2013-03-15 13:49:00,64.2,32.1,30.31,SW,225,1.6,3.1,30,0.00,,,0.00,pywws,2013-03-15 17:49:00,
2013-03-15 13:54:00,64.4,32.3,30.31,West,270,6.9,9.8,30,0.00,,,0.00,pywws,2013-03-15 17:54:00,
2013-03-15 14:05:00,64.6,32.4,30.30,South,180,1.6,4.5,30,0.00,,,0.00,pywws,2013-03-15 18:05:00,
2013-03-15 14:09:00,66.0,32.8,30.30,WNW,292,3.8,6.9,29,0.00,,,0.00,pywws,2013-03-15 18:09:00,
2013-03-15 14:14:00,66.4,32.3,30.30,SW,225,3.8,6.9,28,0.00,,,0.00,pywws,2013-03-15 18:14:00,
2013-03-15 14:19:00,66.2,33.0,30.30,South,180,4.5,8.3,29,0.00,,,0.00,pywws,2013-03-15 18:19:00,
2013-03-15 14:24:00,66.4,32.3,30.30,SE,135,2.2,4.5,28,0.00,,,0.00,pywws,2013-03-15 18:24:00,
2013-03-15 14:35:00,66.6,32.4,30.29,SSE,158,2.2,3.8,28,0.00,,,0.00,pywws,2013-03-15 18:35:00,
2013-03-15 14:40:00,67.1,32.9,30.29,SW,225,2.2,3.8,28,0.00,,,0.00,pywws,2013-03-15 18:40:00,
2013-03-15 14:45:00,67.6,33.4,30.29,East,90,2.2,5.4,28,0.00,,,0.00,pywws,2013-03-15 18:45:00,
2013-03-15 14:50:00,68.4,32.1,30.29,SW,225,3.8,6.0,26,0.00,,,0.00,pywws,2013-03-15 18:50:00,
2013-03-15 14:55:00,68.2,32.0,30.29,West,270,7.6,9.8,26,0.00,,,0.00,pywws,2013-03-15 18:55:00,
2013-03-15 15:05:00,68.4,33.1,30.29,SE,135,1.6,3.8,27,0.00,,,0.00,pywws,2013-03-15 19:05:00,
2013-03-15 15:09:00,69.6,33.2,30.29,SW,225,3.1,8.3,26,0.00,,,0.00,pywws,2013-03-15 19:09:00,
2013-03-15 15:14:00,69.8,33.4,30.29,West,270,2.2,4.5,26,0.00,,,0.00,pywws,2013-03-15 19:14:00,
2013-03-15 15:19:00,70.5,32.0,30.29,South,180,2.2,7.6,24,0.00,,,0.00,pywws,2013-03-15 19:19:00,
2013-03-15 15:24:00,70.3,32.8,30.29,SE,135,2.2,3.8,25,0.00,,,0.00,pywws,2013-03-15 19:24:00,
2013-03-15 15:35:00,70.7,32.1,30.29,West,270,6.0,10.7,24,0.00,,,0.00,pywws,2013-03-15 19:35:00,
2013-03-15 15:39:00,71.8,33.0,30.28,SW,225,3.1,4.5,24,0.00,,,0.00,pywws,2013-03-15 19:39:00,
2013-03-15 15:44:00,72.0,32.1,30.28,West,270,5.4,10.7,23,0.00,,,0.00,pywws,2013-03-15 19:44:00,
2013-03-15 15:49:00,71.2,32.6,30.28,West,270,6.0,10.7,24,0.00,,,0.00,pywws,2013-03-15 19:49:00,
2013-03-15 15:54:00,70.7,33.1,30.28,West,270,3.8,10.7,25,0.00,,,0.00,pywws,2013-03-15 19:54:00,
2013-03-15 16:05:00,71.1,33.5,30.28,SW,225,3.1,7.6,25,0.00,,,0.00,pywws,2013-03-15 20:05:00,
2013-03-15 16:09:00,71.4,33.8,30.28,West,270,4.5,6.0,25,0.00,,,0.00,pywws,2013-03-15 20:09:00,
2013-03-15 16:14:00,72.0,33.2,30.28,NW,315,7.6,13.0,24,0.00,,,0.00,pywws,2013-03-15 20:14:00,
2013-03-15 16:19:00,72.5,33.6,30.28,WNW,292,4.5,9.2,24,0.00,,,0.00,pywws,2013-03-15 20:19:00,
2013-03-15 16:24:00,73.0,35.1,30.27,West,270,2.2,6.0,25,0.00,,,0.00,pywws,2013-03-15 20:24:00,
2013-03-15 16:35:00,73.2,34.3,30.27,SW,225,3.1,5.4,24,0.00,,,0.00,pywws,2013-03-15 20:35:00,
2013-03-15 16:40:00,74.1,35.0,30.27,SW,225,4.5,9.2,24,0.00,,,0.00,pywws,2013-03-15 20:40:00,
2013-03-15 16:45:00,73.8,33.6,30.27,WSW,248,5.4,9.2,23,0.00,,,0.00,pywws,2013-03-15 20:45:00,
2013-03-15 16:50:00,72.9,34.0,30.27,West,270,5.4,8.3,24,0.00,,,0.00,pywws,2013-03-15 20:50:00,
2013-03-15 16:55:00,73.2,34.3,30.27,SW,225,6.0,13.0,24,0.00,,,0.00,pywws,2013-03-15 20:55:00,
2013-03-15 17:05:00,73.4,33.3,30.27,West,270,3.1,6.0,23,0.00,,,0.00,pywws,2013-03-15 21:05:00,
2013-03-15 17:09:00,73.2,34.3,30.27,WNW,292,3.8,6.9,24,0.00,,,0.00,pywws,2013-03-15 21:09:00,
2013-03-15 17:14:00,72.9,34.0,30.27,South,180,3.8,6.9,24,0.00,,,0.00,pywws,2013-03-15 21:14:00,
2013-03-15 17:19:00,73.0,35.1,30.27,NE,45,3.8,6.9,25,0.00,,,0.00,pywws,2013-03-15 21:19:00,
2013-03-15 17:24:00,73.4,34.4,30.27,SE,135,2.2,4.5,24,0.00,,,0.00,pywws,2013-03-15 21:24:00,
2013-03-15 17:35:00,73.4,34.4,30.27,West,270,4.5,11.4,24,0.00,,,0.00,pywws,2013-03-15 21:35:00,
2013-03-15 17:39:00,72.9,34.0,30.27,NNW,338,6.0,9.8,24,0.00,,,0.00,pywws,2013-03-15 21:39:00,
2013-03-15 17:44:00,72.5,34.7,30.27,West,270,2.2,5.4,25,0.00,,,0.00,pywws,2013-03-15 21:44:00,
2013-03-15 17:49:00,72.5,33.6,30.26,WSW,248,5.4,9.2,24,0.00,,,0.00,pywws,2013-03-15 21:49:00,
2013-03-15 17:54:00,72.5,34.7,30.27,SW,225,3.8,6.0,25,0.00,,,0.00,pywws,2013-03-15 21:54:00,
2013-03-15 18:05:00,72.7,33.8,30.27,SW,225,3.8,6.9,24,0.00,,,0.00,pywws,2013-03-15 22:05:00,
2013-03-15 18:09:00,72.1,34.4,30.27,NW,315,2.2,7.6,25,0.00,,,0.00,pywws,2013-03-15 22:09:00,
2013-03-15 18:14:00,71.6,33.9,30.27,SE,135,2.2,4.5,25,0.00,,,0.00,pywws,2013-03-15 22:14:00,
2013-03-15 18:19:00,71.2,34.6,30.27,West,270,3.8,9.8,26,0.00,,,0.00,pywws,2013-03-15 22:19:00,
2013-03-15 18:24:00,71.1,34.4,30.27,WSW,248,4.5,7.6,26,0.00,,,0.00,pywws,2013-03-15 22:24:00,
2013-03-15 18:35:00,71.2,34.6,30.27,SW,225,1.6,5.4,26,0.00,,,0.00,pywws,2013-03-15 22:35:00,
2013-03-15 18:39:00,72.0,35.2,30.27,SW,225,3.1,4.5,26,0.00,,,0.00,pywws,2013-03-15 22:39:00,
2013-03-15 18:44:00,71.4,34.7,30.27,West,270,2.2,4.5,26,0.00,,,0.00,pywws,2013-03-15 22:44:00,
2013-03-15 18:49:00,70.9,35.2,30.27,West,270,1.6,5.4,27,0.00,,,0.00,pywws,2013-03-15 22:49:00,
2013-03-15 18:54:00,70.3,34.8,30.27,South,180,2.2,4.5,27,0.00,,,0.00,pywws,2013-03-15 22:54:00,
2013-03-15 19:05:00,70.0,34.5,30.27,SW,225,2.2,4.5,27,0.00,,,0.00,pywws,2013-03-15 23:05:00,
2013-03-15 19:09:00,69.3,34.8,30.27,SW,225,3.1,5.4,28,0.00,,,0.00,pywws,2013-03-15 23:09:00,
2013-03-15 19:14:00,68.9,35.3,30.27,SW,225,0.7,2.2,29,0.00,,,0.00,pywws,2013-03-15 23:14:00,
2013-03-15 19:19:00,68.5,35.9,30.27,West,270,1.6,3.1,30,0.00,,,0.00,pywws,2013-03-15 23:19:00,
2013-03-15 19:24:00,68.2,35.6,30.27,WNW,292,1.6,2.2,30,0.00,,,0.00,pywws,2013-03-15 23:24:00,
2013-03-15 19:35:00,68.0,36.2,30.27,West,270,0.7,1.6,31,0.00,,,0.00,pywws,2013-03-15 23:35:00,
2013-03-15 19:39:00,67.3,36.4,30.27,SE,135,0.0,0.0,32,0.00,,,0.00,pywws,2013-03-15 23:39:00,
2013-03-15 19:44:00,66.9,36.1,30.27,SW,225,0.0,0.0,32,0.00,,,0.00,pywws,2013-03-15 23:44:00,
2013-03-15 19:49:00,66.4,36.4,30.27,East,90,0.0,0.0,33,0.00,,,0.00,pywws,2013-03-15 23:49:00,
2013-03-15 19:54:00,66.0,36.8,30.27,SE,135,0.0,0.0,34,0.00,,,0.00,pywws,2013-03-15 23:54:00,
2013-03-15 20:05:00,65.7,37.3,30.27,South,180,0.0,0.0,35,0.00,,,0.00,pywws,2013-03-16 00:05:00,
2013-03-15 20:10:00,65.3,36.9,30.26,East,90,0.7,2.2,35,0.00,,,0.00,pywws,2013-03-16 00:10:00,
2013-03-15 20:15:00,65.1,36.8,30.26,South,180,0.7,1.6,35,0.00,,,0.00,pywws,2013-03-16 00:15:00,
2013-03-15 20:20:00,64.9,36.6,30.26,South,180,0.0,0.0,35,0.00,,,0.00,pywws,2013-03-16 00:20:00,
2013-03-15 20:25:00,64.8,37.2,30.26,SE,135,0.7,1.6,36,0.00,,,0.00,pywws,2013-03-16 00:25:00,
2013-03-15 20:35:00,64.6,37.0,30.26,South,180,0.0,0.7,36,0.00,,,0.00,pywws,2013-03-16 00:35:00,
2013-03-15 20:39:00,64.4,37.6,30.26,South,180,0.7,1.6,37,0.00,,,0.00,pywws,2013-03-16 00:39:00,
2013-03-15 20:44:00,64.2,37.4,30.26,South,180,1.6,2.2,37,0.00,,,0.00,pywws,2013-03-16 00:44:00,
2013-03-15 20:49:00,64.0,37.2,30.26,South,180,1.6,3.8,37,0.00,,,0.00,pywws,2013-03-16 00:49:00,
2013-03-15 20:54:00,64.2,37.4,30.26,SE,135,2.2,4.5,37,0.00,,,0.00,pywws,2013-03-16 00:54:00,
2013-03-15 21:05:00,64.2,37.4,30.26,SE,135,1.6,3.1,37,0.00,,,0.00,pywws,2013-03-16 01:05:00,
2013-03-15 21:09:00,64.2,37.4,30.26,South,180,0.7,1.6,37,0.00,,,0.00,pywws,2013-03-16 01:09:00,
2013-03-15 21:14:00,64.2,37.4,30.26,South,180,0.7,2.2,37,0.00,,,0.00,pywws,2013-03-16 01:14:00,
2013-03-15 21:19:00,64.0,37.9,30.26,SE,135,1.6,3.1,38,0.00,,,0.00,pywws,2013-03-16 01:19:00,
2013-03-15 21:24:00,64.0,37.9,30.26,SE,135,0.7,3.1,38,0.00,,,0.00,pywws,2013-03-16 01:24:00,
2013-03-15 21:35:00,63.9,37.8,30.26,South,180,0.0,2.2,38,0.00,,,0.00,pywws,2013-03-16 01:35:00,
2013-03-15 21:39:00,63.5,38.1,30.26,South,180,1.6,3.1,39,0.00,,,0.00,pywws,2013-03-16 01:39:00,
2013-03-15 21:44:00,63.3,37.9,30.26,SE,135,1.6,3.1,39,0.00,,,0.00,pywws,2013-03-16 01:44:00,
2013-03-15 21:49:00,63.3,37.9,30.26,SE,135,1.6,3.1,39,0.00,,,0.00,pywws,2013-03-16 01:49:00,
2013-03-15 21:54:00,63.0,38.3,30.26,South,180,1.6,3.1,40,0.00,,,0.00,pywws,2013-03-16 01:54:00,
2013-03-15 22:05:00,62.8,38.1,30.26,SE,135,1.6,2.2,40,0.00,,,0.00,pywws,2013-03-16 02:05:00,
2013-03-15 22:09:00,62.6,38.6,30.26,SE,135,1.6,3.1,41,0.00,,,0.00,pywws,2013-03-16 02:09:00,
2013-03-15 22:14:00,62.2,38.2,30.26,South,180,1.6,3.1,41,0.00,,,0.00,pywws,2013-03-16 02:14:00,
2013-03-15 22:19:00,62.2,38.2,30.26,East,90,0.7,2.2,41,0.00,,,0.00,pywws,2013-03-16 02:19:00,
2013-03-15 22:24:00,62.1,38.7,30.27,SE,135,0.0,2.2,42,0.00,,,0.00,pywws,2013-03-16 02:24:00,
2013-03-15 22:35:00,61.9,38.5,30.27,SW,225,1.6,3.1,42,0.00,,,0.00,pywws,2013-03-16 02:35:00,
2013-03-15 22:40:00,61.9,38.5,30.27,SE,135,0.7,2.2,42,0.00,,,0.00,pywws,2013-03-16 02:40:00,
2013-03-15 22:45:00,61.9,38.5,30.27,SW,225,1.6,3.1,42,0.00,,,0.00,pywws,2013-03-16 02:45:00,
2013-03-15 22:50:00,61.7,39.0,30.27,SE,135,0.7,3.1,43,0.00,,,0.00,pywws,2013-03-16 02:50:00,
2013-03-15 22:55:00,61.7,39.0,30.27,SW,225,0.7,3.1,43,0.00,,,0.00,pywws,2013-03-16 02:55:00,
2013-03-15 23:05:00,61.5,38.8,30.28,SW,225,1.6,3.1,43,0.00,,,0.00,pywws,2013-03-16 03:05:00,
2013-03-15 23:10:00,61.5,38.8,30.28,SE,135,0.7,1.6,43,0.00,,,0.00,pywws,2013-03-16 03:10:00,
2013-03-15 23:15:00,61.3,39.2,30.28,SW,225,1.6,3.1,44,0.00,,,0.00,pywws,2013-03-16 03:15:00,
2013-03-15 23:20:00,61.3,38.6,30.28,ESE,112,1.6,3.8,43,0.00,,,0.00,pywws,2013-03-16 03:20:00,
2013-03-15 23:25:00,61.2,39.1,30.29,SSE,158,0.7,2.2,44,0.00,,,0.00,pywws,2013-03-16 03:25:00,
2013-03-15 23:35:00,61.2,39.1,30.29,SE,135,0.0,2.2,44,0.00,,,0.00,pywws,2013-03-16 03:35:00,
2013-03-15 23:39:00,61.0,38.9,30.29,SE,135,1.6,2.2,44,0.00,,,0.00,pywws,2013-03-16 03:39:00,
2013-03-15 23:44:00,61.7,40.1,30.29,SE,135,0.7,1.6,45,0.00,,,0.00,pywws,2013-03-16 03:44:00,
2013-03-15 23:49:00,60.8,39.3,30.30,SSW,202,2.2,3.8,45,0.00,,,0.00,pywws,2013-03-16 03:49:00,
2013-03-15 23:54:00,60.4,39.0,30.30,South,180,0.0,1.6,45,0.00,,,0.00,pywws,2013-03-16 03:54:00,